Time;durP1;ratioP1;P1;durP2;ratioP2;P2;SDS_P1;SDS_P2;PMS_P1;PMS_P2;Temp;Humidity;BMP_temperature;BMP_pressure;BME280_temperature;BME280_humidity;BME280_pressure;Samples;Min_cycle;Max_cycle;Signal;HPM_P1;HPM_P2
2022/09/28 00:02:00;;;;;;;0.43;0.43;;;;;;;13.84;62.26;99156.94;18560385;31;20179;-57
2022/09/28 00:12:03;;;;;;;0.40;0.40;;;;;;;13.70;61.93;99157.41;18558531;31;20144;-57
2022/09/28 00:22:07;;;;;;;0.40;0.40;;;;;;;13.50;63.04;99129.28;18556569;32;20108;-57
2022/09/28 00:32:12;;;;;;;0.50;0.50;;;;;;;13.26;63.81;99140.53;18557357;31;20097;-57
2022/09/28 00:42:18;;;;;;;0.45;0.45;;;;;;;13.19;63.80;99139.00;18555610;32;20096;-57
2022/09/28 00:52:25;;;;;;;0.40;0.40;;;;;;;12.72;65.71;99152.75;18562120;31;20429;-57
2022/09/28 01:02:31;;;;;;;0.40;0.40;;;;;;;12.66;66.13;99158.16;18565303;31;20104;-57
2022/09/28 01:12:34;;;;;;;0.43;0.43;;;;;;;12.49;67.06;99156.91;18564718;31;20088;-57
2022/09/28 01:23:11;;;;;;;0.50;0.50;;;;;;;12.53;66.38;99160.28;18564597;31;20193;-57
2022/09/28 01:33:20;;;;;;;0.50;0.50;;;;;;;12.25;66.68;99175.06;18563323;32;20175;-57
2022/09/28 01:43:25;;;;;;;0.40;0.40;;;;;;;12.28;66.78;99188.06;18565206;31;20089;-57
2022/09/28 01:53:36;;;;;;;0.90;0.77;;;;;;;12.41;66.75;99177.22;18564923;31;20107;-57
2022/09/28 02:03:41;;;;;;;0.40;0.40;;;;;;;12.26;66.68;99181.12;18563148;31;20084;-57
2022/09/28 02:13:48;;;;;;;0.32;0.32;;;;;;;12.17;67.06;99193.56;18563308;32;20106;-57
2022/09/28 02:23:54;;;;;;;0.40;0.40;;;;;;;11.96;67.26;99195.03;18562923;31;20099;-57
2022/09/28 02:33:59;;;;;;;0.40;0.40;;;;;;;12.35;66.17;99189.59;18563886;31;20088;-57
2022/09/28 02:44:08;;;;;;;0.60;0.60;;;;;;;12.44;66.23;99208.56;18562318;31;20092;-57
2022/09/28 02:54:27;;;;;;;0.40;0.40;;;;;;;12.07;67.24;99211.31;18561936;31;20096;-56
2022/09/28 03:04:37;;;;;;;0.50;0.50;;;;;;;12.05;67.21;99186.94;18561692;32;20131;-57
2022/09/28 03:14:41;;;;;;;0.40;0.40;;;;;;;12.19;67.02;99210.13;18561450;31;20080;-57
2022/09/28 03:24:44;;;;;;;0.40;0.40;;;;;;;11.96;67.95;99208.09;18561240;32;20189;-57
2022/09/28 03:34:49;;;;;;;0.50;0.50;;;;;;;12.00;67.29;99203.63;18560924;31;20128;-57
2022/09/28 03:44:52;;;;;;;0.30;0.30;;;;;;;12.09;66.93;99215.63;18560134;31;20092;-57
2022/09/28 03:54:56;;;;;;;0.62;0.60;;;;;;;12.03;65.95;99222.72;18559565;31;20106;-57
2022/09/28 04:05:00;;;;;;;0.43;0.43;;;;;;;11.59;68.08;99235.19;18559256;31;20092;-57
2022/09/28 04:15:05;;;;;;;0.40;0.40;;;;;;;11.81;67.07;99225.06;18558503;31;20364;-57
2022/09/28 04:25:09;;;;;;;0.47;0.47;;;;;;;11.09;69.56;99220.69;18561722;31;20072;-57
2022/09/28 04:35:13;;;;;;;0.30;0.30;;;;;;;11.31;69.08;99230.66;18594897;31;20115;-57
2022/09/28 04:45:16;;;;;;;0.40;0.40;;;;;;;11.34;68.54;99226.22;18601195;31;20103;-58
2022/09/28 04:55:21;;;;;;;0.50;0.50;;;;;;;11.45;67.80;99214.63;18568682;31;20476;-57
2022/09/28 05:05:24;;;;;;;0.40;0.40;;;;;;;11.43;67.94;99225.13;18573643;31;20119;-57
2022/09/28 05:15:29;;;;;;;0.57;0.57;;;;;;;11.27;68.47;99242.06;18623051;31;20231;-57
2022/09/28 05:25:34;;;;;;;0.40;0.40;;;;;;;11.31;67.56;99243.72;18576175;31;20145;-57
2022/09/28 05:35:39;;;;;;;0.30;0.30;;;;;;;11.21;67.89;99249.16;18563687;32;20089;-57
2022/09/28 05:45:42;;;;;;;0.50;0.50;;;;;;;11.71;67.24;99247.94;18564147;32;20100;-57
2022/09/28 05:55:47;;;;;;;0.30;0.30;;;;;;;12.23;65.67;99226.56;18563826;32;20377;-57
2022/09/28 06:05:50;;;;;;;0.40;0.40;;;;;;;14.24;62.07;99228.12;18580573;31;20114;-57
2022/09/28 06:15:54;;;;;;;0.85;0.43;;;;;;;16.48;55.81;99224.44;18629036;31;20143;-57
2022/09/28 06:25:59;;;;;;;0.20;0.20;;;;;;;17.70;51.55;99209.84;18629044;31;20096;-57
2022/09/28 06:36:03;;;;;;;0.30;0.30;;;;;;;15.31;52.97;99220.59;18628102;31;20716;-57
2022/09/28 06:46:08;;;;;;;0.30;0.30;;;;;;;16.78;51.62;99223.94;18627638;31;20170;-57
2022/09/28 06:56:13;;;;;;;0.30;0.30;;;;;;;16.50;52.82;99236.59;18627159;31;20118;-57
2022/09/28 07:06:17;;;;;;;0.30;0.30;;;;;;;16.97;50.50;99231.81;18626793;31;20092;-57
2022/09/28 07:16:22;;;;;;;0.20;0.20;;;;;;;18.44;46.67;99236.00;18610037;31;20151;-57
2022/09/28 07:26:32;;;;;;;0.20;0.20;;;;;;;19.47;47.41;99236.53;18618194;31;20107;-57
2022/09/28 07:36:37;;;;;;;0.10;0.10;;;;;;;19.60;44.88;99230.50;18626024;31;20104;-57
2022/09/28 07:46:42;;;;;;;0.10;0.10;;;;;;;19.45;41.34;99227.84;18625527;31;20087;-57
2022/09/28 07:56:47;;;;;;;0.20;0.20;;;;;;;19.27;43.45;99227.09;18623757;31;20502;-57
2022/09/28 08:06:50;;;;;;;0.10;0.10;;;;;;;18.53;43.19;99216.16;18624466;31;20088;-57
2022/09/28 08:16:54;;;;;;;0.10;0.10;;;;;;;19.08;44.65;99237.88;18623825;31;20118;-57
2022/09/28 08:26:59;;;;;;;0.10;0.10;;;;;;;19.18;45.96;99231.13;18622527;31;20118;-57
2022/09/28 08:37:03;;;;;;;0.10;0.10;;;;;;;19.03;45.77;99234.62;18622667;31;20104;-57
2022/09/28 08:48:42;;;;;;;0.20;0.20;;;;;;;19.05;46.36;99216.87;18622014;31;20107;-57
2022/09/28 08:57:44;;;;;;;0.20;0.20;;;;;;;19.16;46.14;99189.81;18621435;31;20099;-57
2022/09/28 09:08:01;;;;;;;0.10;0.10;;;;;;;19.50;46.23;99187.88;18622303;31;20079;-57
2022/09/28 09:18:16;;;;;;;0.20;0.20;;;;;;;19.22;48.80;99194.78;18630647;31;20353;-57
2022/09/28 09:28:43;;;;;;;0.10;0.10;;;;;;;19.24;47.22;99191.06;18630154;31;20088;-57
2022/09/28 09:38:56;;;;;;;0.10;0.10;;;;;;;20.13;44.79;99193.00;18622897;31;20115;-57
2022/09/28 09:49:04;;;;;;;0.20;0.20;;;;;;;19.57;47.70;99188.34;18571771;31;20135;-57
2022/09/28 09:59:13;;;;;;;0.10;0.10;;;;;;;19.33;47.85;99187.06;18563427;32;20093;-57
2022/09/28 10:09:20;;;;;;;0.10;0.10;;;;;;;19.27;47.92;99185.63;18567385;31;20107;-58
2022/09/28 10:19:31;;;;;;;0.10;0.10;;;;;;;19.34;47.20;99194.06;18559802;32;20104;-57
2022/09/28 10:29:42;;;;;;;0.10;0.10;;;;;;;19.85;47.37;99197.31;18558384;32;20120;-58
2022/09/28 10:39:53;;;;;;;0.10;0.10;;;;;;;19.72;47.08;99192.72;18563851;31;20129;-57
2022/09/28 10:49:56;;;;;;;0.00;0.00;;;;;;;20.50;46.62;99188.06;18625359;31;20108;-57
2022/09/28 11:00:01;;;;;;;0.10;0.10;;;;;;;20.94;43.38;99186.19;18624735;31;20163;-57
2022/09/28 11:10:06;;;;;;;0.10;0.10;;;;;;;20.72;43.52;99174.25;18620388;31;20109;-57
2022/09/28 11:20:30;;;;;;;0.10;0.10;;;;;;;20.12;46.44;99170.94;18607147;31;20165;-57
2022/09/28 11:30:36;;;;;;;0.10;0.10;;;;;;;20.00;45.28;99151.34;18622886;31;20107;-57
2022/09/28 11:40:49;;;;;;;0.10;0.10;;;;;;;20.29;44.21;99153.16;18620997;31;20104;-57
2022/09/28 11:50:56;;;;;;;0.10;0.10;;;;;;;19.93;44.17;99152.66;18621064;31;20100;-57
2022/09/28 12:01:04;;;;;;;0.10;0.10;;;;;;;20.39;44.13;99159.56;18568664;31;20130;-57
2022/09/28 12:11:11;;;;;;;0.10;0.10;;;;;;;20.77;45.02;99140.37;18558735;32;20084;-57
2022/09/28 12:21:31;;;;;;;0.17;0.17;;;;;;;20.30;45.84;99123.94;18557789;32;20143;-57
2022/09/28 12:31:38;;;;;;;0.20;0.20;;;;;;;20.65;43.03;99112.00;18557703;32;20103;-57
2022/09/28 12:41:49;;;;;;;0.10;0.10;;;;;;;20.49;43.38;99107.69;18557451;32;20406;-57
2022/09/28 12:51:53;;;;;;;0.20;0.20;;;;;;;20.24;42.77;99093.34;18564070;32;20118;-57
2022/09/28 13:02:27;;;;;;;0.10;0.10;;;;;;;20.20;43.92;99085.69;18583226;31;20150;-57
2022/09/28 13:12:40;;;;;;;0.17;0.17;;;;;;;20.70;42.21;99079.88;18596112;31;20659;-58
2022/09/28 13:22:48;;;;;;;0.10;0.10;;;;;;;20.38;42.98;99088.97;18578597;31;20448;-57
2022/09/28 13:32:53;;;;;;;0.10;0.10;;;;;;;20.14;43.45;99080.78;18596212;31;20398;-58
2022/09/28 13:43:07;;;;;;;0.10;0.10;;;;;;;19.98;41.85;99095.00;18604331;31;20342;-58
2022/09/28 13:53:17;;;;;;;0.10;0.10;;;;;;;19.60;42.61;99091.09;18560601;31;20141;-58
2022/09/28 14:03:28;;;;;;;0.10;0.10;;;;;;;19.48;43.58;99073.28;18602139;31;20092;-58
2022/09/28 14:14:02;;;;;;;0.10;0.10;;;;;;;19.38;44.81;99083.59;18627244;31;20095;-58
2022/09/28 14:24:15;;;;;;;0.10;0.10;;;;;;;19.43;42.56;99076.22;18422096;32;20749;-58
2022/09/28 14:34:33;;;;;;;0.20;0.20;;;;;;;19.33;42.92;99078.59;18421805;32;20120;-58
2022/09/28 14:45:34;;;;;;;0.20;0.20;;;;;;;19.30;44.55;99067.31;18419690;32;20139;-58
2022/09/28 14:55:44;;;;;;;0.10;0.10;;;;;;;19.08;43.55;99064.16;18524019;31;20107;-58
2022/09/28 15:05:49;;;;;;;0.10;0.10;;;;;;;19.14;44.78;99062.94;18619392;31;20092;-58
2022/09/28 15:15:55;;;;;;;0.20;0.20;;;;;;;19.14;44.39;99052.34;18588703;31;20104;-58
2022/09/28 15:25:59;;;;;;;0.20;0.20;;;;;;;19.03;44.93;99060.09;18560738;32;20356;-57
2022/09/28 15:36:05;;;;;;;0.10;0.10;;;;;;;18.94;44.38;99064.09;18559640;32;20118;-58
2022/09/28 15:46:14;;;;;;;0.20;0.20;;;;;;;18.89;44.94;99056.44;18564345;31;162151;-58
2022/09/28 15:56:18;;;;;;;0.20;0.20;;;;;;;19.12;44.88;99052.47;18625122;31;20091;-57
2022/09/28 16:06:23;;;;;;;0.20;0.20;;;;;;;18.95;45.54;99061.34;18624249;31;20096;-58
2022/09/28 16:16:29;;;;;;;0.30;0.30;;;;;;;18.95;45.57;99053.41;18623872;31;20180;-58
2022/09/28 16:26:36;;;;;;;0.20;0.20;;;;;;;19.03;45.48;99054.78;18631723;31;20359;-58
2022/09/28 16:36:44;;;;;;;1.17;0.93;;;;;;;18.98;46.06;99066.47;18631858;31;20083;-58
2022/09/28 16:46:48;;;;;;;0.28;0.28;;;;;;;18.93;46.79;99057.94;18631471;31;20088;-58
2022/09/28 16:56:51;;;;;;;0.20;0.20;;;;;;;18.66;49.47;99063.87;18626932;31;20087;-58
2022/09/28 17:06:57;;;;;;;0.73;0.73;;;;;;;18.54;50.28;99069.88;18630450;31;20124;-58
2022/09/28 17:17:01;;;;;;;0.30;0.30;;;;;;;18.31;51.39;99077.31;18630387;31;20132;-58
2022/09/28 17:27:16;;;;;;;0.30;0.30;;;;;;;18.21;51.95;99081.38;18630000;31;20441;-58
2022/09/28 17:37:20;;;;;;;0.73;0.60;;;;;;;18.05;53.04;99069.03;18625427;31;20189;-58
2022/09/28 17:47:24;;;;;;;0.75;0.75;;;;;;;18.09;52.55;99067.94;18616183;31;20118;-58
2022/09/28 17:57:27;;;;;;;0.55;0.40;;;;;;;18.05;53.27;99071.69;18609155;31;20098;-58
2022/09/28 18:07:33;;;;;;;0.20;0.20;;;;;;;18.03;52.55;99071.75;18561438;32;20100;-59
2022/09/28 18:17:36;;;;;;;0.30;0.30;;;;;;;17.92;54.16;99094.34;18561966;32;20128;-58
2022/09/28 18:27:41;;;;;;;0.20;0.20;;;;;;;17.25;58.23;99098.66;18585865;31;20098;-57
2022/09/28 18:37:44;;;;;;;0.30;0.30;;;;;;;16.76;61.48;99109.84;18612894;31;20113;-59
2022/09/28 18:47:49;;;;;;;0.20;0.20;;;;;;;16.53;64.15;99113.59;18590674;31;20096;-57
2022/09/28 18:57:52;;;;;;;0.30;0.30;;;;;;;16.41;64.93;99105.34;18587913;31;20100;-57
2022/09/28 19:07:57;;;;;;;0.30;0.30;;;;;;;16.34;65.44;99122.34;18625913;31;20493;-58
2022/09/28 19:18:00;;;;;;;0.30;0.30;;;;;;;16.23;66.62;99126.34;18627106;31;20091;-57
2022/09/28 19:28:05;;;;;;;0.30;0.30;;;;;;;16.14;67.30;99126.75;18624669;31;20113;-57
2022/09/28 19:38:08;;;;;;;0.30;0.30;;;;;;;16.16;67.43;99127.53;18623986;31;20333;-57
2022/09/28 19:48:12;;;;;;;0.57;0.57;;;;;;;16.20;67.48;99136.16;18623800;31;20107;-57
2022/09/28 19:58:16;;;;;;;0.40;0.40;;;;;;;16.12;68.13;99123.31;18621984;31;20129;-57
2022/09/28 20:08:20;;;;;;;0.30;0.30;;;;;;;16.15;68.20;99117.94;18583377;31;20084;-58
2022/09/28 20:18:23;;;;;;;0.20;0.20;;;;;;;15.89;69.31;99119.94;18572571;31;20101;-56
2022/09/28 20:28:28;;;;;;;0.30;0.30;;;;;;;15.94;69.57;99120.62;18580062;31;20119;-56
2022/09/28 20:38:31;;;;;;;0.35;0.35;;;;;;;16.11;68.91;99115.50;18584955;31;20119;-56
2022/09/28 20:48:36;;;;;;;0.40;0.40;;;;;;;16.13;68.72;99111.03;18607201;31;20129;-56
2022/09/28 20:58:40;;;;;;;0.20;0.20;;;;;;;16.05;69.18;99114.03;18620008;31;20084;-56
2022/09/28 21:08:45;;;;;;;0.25;0.25;;;;;;;16.13;69.19;99101.37;18624287;31;20108;-56
2022/09/28 21:18:48;;;;;;;0.30;0.30;;;;;;;16.00;69.66;99072.13;18629054;31;20163;-56
2022/09/28 21:28:53;;;;;;;0.28;0.28;;;;;;;16.02;69.13;99095.72;18630337;31;20100;-56
2022/09/28 21:38:56;;;;;;;0.95;0.95;;;;;;;16.02;69.09;99080.78;18631056;31;20430;-56
2022/09/28 21:49:01;;;;;;;0.40;0.40;;;;;;;16.03;69.03;99077.22;18629232;31;20088;-56
2022/09/28 21:59:04;;;;;;;0.30;0.30;;;;;;;15.94;69.70;99065.34;18629461;31;20096;-56
2022/09/28 22:09:08;;;;;;;0.40;0.40;;;;;;;15.98;69.56;99073.09;18628933;31;20118;-56
2022/09/28 22:19:11;;;;;;;0.30;0.30;;;;;;;15.88;69.69;99077.88;18628955;31;20104;-56
2022/09/28 22:29:16;;;;;;;0.37;0.37;;;;;;;15.88;69.61;99078.75;18628448;31;20093;-56
2022/09/28 22:39:19;;;;;;;0.57;0.57;;;;;;;15.77;69.98;99067.88;18628196;31;20181;-56
2022/09/28 22:49:25;;;;;;;0.32;0.32;;;;;;;15.80;69.72;99065.09;18627593;31;20114;-56
2022/09/28 22:59:28;;;;;;;0.50;0.50;;;;;;;15.76;69.42;99063.53;18627970;31;20084;-56
2022/09/28 23:09:32;;;;;;;0.37;0.37;;;;;;;15.75;69.25;99067.09;18627383;31;20151;-56
2022/09/28 23:19:35;;;;;;;0.40;0.40;;;;;;;15.70;69.03;99058.53;18627000;31;20110;-56
2022/09/28 23:29:45;;;;;;;0.30;0.30;;;;;;;15.58;69.21;99063.44;18625207;31;20419;-56
2022/09/28 23:39:49;;;;;;;0.40;0.40;;;;;;;15.50;70.26;99058.50;18626277;31;20107;-56
2022/09/28 23:49:53;;;;;;;0.40;0.40;;;;;;;15.37;70.86;99041.56;18625209;31;20168;-56
2022/09/28 23:59:57;;;;;;;0.30;0.30;;;;;;;15.55;70.33;99050.41;18625230;31;20091;-56
